sensor_id;sensor_type;location;lat;lon;timestamp;P1;durP1;ratioP1;P2;durP2;ratioP2
9500;SDS011;4788;52.438;9.846;2022-08-11T00:01:14;0.40;;;0.40;;
9500;SDS011;4788;52.438;9.846;2022-08-11T00:03:42;0.37;;;0.37;;
9500;SDS011;4788;52.438;9.846;2022-08-11T00:06:09;0.37;;;0.37;;
9500;SDS011;4788;52.438;9.846;2022-08-11T00:08:37;0.40;;;0.40;;
9500;SDS011;4788;52.438;9.846;2022-08-11T00:11:05;0.33;;;0.33;;
9500;SDS011;4788;52.438;9.846;2022-08-11T00:13:35;0.30;;;0.30;;
9500;SDS011;4788;52.438;9.846;2022-08-11T00:16:03;0.40;;;0.40;;
9500;SDS011;4788;52.438;9.846;2022-08-11T00:18:37;0.33;;;0.33;;
9500;SDS011;4788;52.438;9.846;2022-08-11T00:21:04;0.40;;;0.40;;
9500;SDS011;4788;52.438;9.846;2022-08-11T00:23:30;0.30;;;0.30;;
9500;SDS011;4788;52.438;9.846;2022-08-11T00:25:56;0.40;;;0.40;;
9500;SDS011;4788;52.438;9.846;2022-08-11T00:28:24;0.40;;;0.40;;
9500;SDS011;4788;52.438;9.846;2022-08-11T00:30:51;0.30;;;0.30;;
9500;SDS011;4788;52.438;9.846;2022-08-11T00:33:17;0.30;;;0.30;;
9500;SDS011;4788;52.438;9.846;2022-08-11T00:35:45;0.30;;;0.30;;
9500;SDS011;4788;52.438;9.846;2022-08-11T00:38:12;0.30;;;0.30;;
9500;SDS011;4788;52.438;9.846;2022-08-11T00:43:14;0.43;;;0.43;;
9500;SDS011;4788;52.438;9.846;2022-08-11T00:45:42;0.40;;;0.40;;
9500;SDS011;4788;52.438;9.846;2022-08-11T00:48:27;0.40;;;0.40;;
9500;SDS011;4788;52.438;9.846;2022-08-11T00:51:00;0.40;;;0.40;;
9500;SDS011;4788;52.438;9.846;2022-08-11T01:04:16;0.30;;;0.30;;
9500;SDS011;4788;52.438;9.846;2022-08-11T01:06:45;0.40;;;0.40;;
9500;SDS011;4788;52.438;9.846;2022-08-11T01:12:04;0.30;;;0.30;;
9500;SDS011;4788;52.438;9.846;2022-08-11T01:19:58;0.50;;;0.50;;
9500;SDS011;4788;52.438;9.846;2022-08-11T01:22:40;0.40;;;0.40;;
9500;SDS011;4788;52.438;9.846;2022-08-11T01:30:55;0.40;;;0.40;;
9500;SDS011;4788;52.438;9.846;2022-08-11T01:47:23;0.40;;;0.40;;
9500;SDS011;4788;52.438;9.846;2022-08-11T01:52:41;0.50;;;0.50;;
9500;SDS011;4788;52.438;9.846;2022-08-11T01:55:31;0.40;;;0.40;;
9500;SDS011;4788;52.438;9.846;2022-08-11T02:00:29;0.40;;;0.40;;
9500;SDS011;4788;52.438;9.846;2022-08-11T02:03:07;0.53;;;0.53;;
9500;SDS011;4788;52.438;9.846;2022-08-11T02:08:25;0.50;;;0.50;;
9500;SDS011;4788;52.438;9.846;2022-08-11T02:13:55;0.50;;;0.50;;
9500;SDS011;4788;52.438;9.846;2022-08-11T02:18:52;0.40;;;0.40;;
9500;SDS011;4788;52.438;9.846;2022-08-11T02:21:49;0.47;;;0.47;;
9500;SDS011;4788;52.438;9.846;2022-08-11T02:24:35;0.40;;;0.40;;
9500;SDS011;4788;52.438;9.846;2022-08-11T02:27:07;0.40;;;0.40;;
9500;SDS011;4788;52.438;9.846;2022-08-11T02:29:46;0.40;;;0.40;;
9500;SDS011;4788;52.438;9.846;2022-08-11T02:32:17;0.50;;;0.50;;
9500;SDS011;4788;52.438;9.846;2022-08-11T02:38:04;0.50;;;0.50;;
9500;SDS011;4788;52.438;9.846;2022-08-11T02:40:34;0.30;;;0.30;;
9500;SDS011;4788;52.438;9.846;2022-08-11T02:45:40;0.40;;;0.40;;
9500;SDS011;4788;52.438;9.846;2022-08-11T02:51:03;0.50;;;0.50;;
9500;SDS011;4788;52.438;9.846;2022-08-11T02:53:36;0.40;;;0.40;;
9500;SDS011;4788;52.438;9.846;2022-08-11T03:01:52;0.50;;;0.50;;
9500;SDS011;4788;52.438;9.846;2022-08-11T03:04:22;0.40;;;0.40;;
9500;SDS011;4788;52.438;9.846;2022-08-11T03:06:52;0.43;;;0.43;;
9500;SDS011;4788;52.438;9.846;2022-08-11T03:09:27;0.60;;;0.60;;
9500;SDS011;4788;52.438;9.846;2022-08-11T03:12:02;0.40;;;0.40;;
9500;SDS011;4788;52.438;9.846;2022-08-11T03:15:06;0.40;;;0.40;;
9500;SDS011;4788;52.438;9.846;2022-08-11T03:20:40;0.50;;;0.50;;
9500;SDS011;4788;52.438;9.846;2022-08-11T03:25:48;0.43;;;0.43;;
9500;SDS011;4788;52.438;9.846;2022-08-11T03:31:18;0.50;;;0.50;;
9500;SDS011;4788;52.438;9.846;2022-08-11T03:46:58;0.50;;;0.50;;
9500;SDS011;4788;52.438;9.846;2022-08-11T03:52:12;0.50;;;0.50;;
9500;SDS011;4788;52.438;9.846;2022-08-11T03:57:25;0.40;;;0.40;;
9500;SDS011;4788;52.438;9.846;2022-08-11T04:03:00;0.60;;;0.60;;
9500;SDS011;4788;52.438;9.846;2022-08-11T04:05:48;0.50;;;0.50;;
9500;SDS011;4788;52.438;9.846;2022-08-11T04:11:22;0.50;;;0.50;;
9500;SDS011;4788;52.438;9.846;2022-08-11T04:21:56;0.50;;;0.50;;
9500;SDS011;4788;52.438;9.846;2022-08-11T04:43:14;0.50;;;0.50;;
9500;SDS011;4788;52.438;9.846;2022-08-11T04:57:36;0.40;;;0.40;;
9500;SDS011;4788;52.438;9.846;2022-08-11T05:00:27;0.40;;;0.40;;
9500;SDS011;4788;52.438;9.846;2022-08-11T05:03:34;0.50;;;0.50;;
9500;SDS011;4788;52.438;9.846;2022-08-11T05:08:49;0.50;;;0.50;;
9500;SDS011;4788;52.438;9.846;2022-08-11T05:13:45;0.50;;;0.50;;
9500;SDS011;4788;52.438;9.846;2022-08-11T05:16:33;0.50;;;0.50;;
9500;SDS011;4788;52.438;9.846;2022-08-11T05:19:19;0.40;;;0.40;;
9500;SDS011;4788;52.438;9.846;2022-08-11T05:22:05;0.40;;;0.40;;
9500;SDS011;4788;52.438;9.846;2022-08-11T05:30:56;0.40;;;0.40;;
9500;SDS011;4788;52.438;9.846;2022-08-11T05:33:46;0.40;;;0.40;;
9500;SDS011;4788;52.438;9.846;2022-08-11T05:36:44;0.40;;;0.40;;
9500;SDS011;4788;52.438;9.846;2022-08-11T05:39:30;0.50;;;0.50;;
9500;SDS011;4788;52.438;9.846;2022-08-11T05:42:19;0.40;;;0.40;;
9500;SDS011;4788;52.438;9.846;2022-08-11T05:45:10;0.50;;;0.50;;
9500;SDS011;4788;52.438;9.846;2022-08-11T05:47:55;0.40;;;0.40;;
9500;SDS011;4788;52.438;9.846;2022-08-11T05:50:41;0.47;;;0.47;;
9500;SDS011;4788;52.438;9.846;2022-08-11T05:53:33;0.43;;;0.43;;
9500;SDS011;4788;52.438;9.846;2022-08-11T05:56:17;0.43;;;0.43;;
9500;SDS011;4788;52.438;9.846;2022-08-11T05:58:48;0.40;;;0.40;;
9500;SDS011;4788;52.438;9.846;2022-08-11T06:01:21;0.30;;;0.30;;
9500;SDS011;4788;52.438;9.846;2022-08-11T06:03:49;0.50;;;0.50;;
9500;SDS011;4788;52.438;9.846;2022-08-11T06:06:34;0.40;;;0.40;;
9500;SDS011;4788;52.438;9.846;2022-08-11T06:09:04;0.30;;;0.30;;
9500;SDS011;4788;52.438;9.846;2022-08-11T06:11:30;0.40;;;0.40;;
9500;SDS011;4788;52.438;9.846;2022-08-11T06:14:03;0.30;;;0.30;;
9500;SDS011;4788;52.438;9.846;2022-08-11T06:16:30;0.30;;;0.30;;
9500;SDS011;4788;52.438;9.846;2022-08-11T06:18:56;0.30;;;0.30;;
9500;SDS011;4788;52.438;9.846;2022-08-11T06:21:23;0.40;;;0.40;;
9500;SDS011;4788;52.438;9.846;2022-08-11T06:23:49;0.30;;;0.30;;
9500;SDS011;4788;52.438;9.846;2022-08-11T06:26:16;0.30;;;0.30;;
9500;SDS011;4788;52.438;9.846;2022-08-11T06:28:44;0.30;;;0.30;;
9500;SDS011;4788;52.438;9.846;2022-08-11T06:31:18;0.40;;;0.40;;
9500;SDS011;4788;52.438;9.846;2022-08-11T06:39:32;0.30;;;0.30;;
9500;SDS011;4788;52.438;9.846;2022-08-11T06:41:52;0.30;;;0.30;;
9500;SDS011;4788;52.438;9.846;2022-08-11T06:44:28;0.30;;;0.30;;
9500;SDS011;4788;52.438;9.846;2022-08-11T06:46:59;0.30;;;0.30;;
9500;SDS011;4788;52.438;9.846;2022-08-11T06:49:33;0.30;;;0.30;;
9500;SDS011;4788;52.438;9.846;2022-08-11T06:52:18;0.30;;;0.30;;
9500;SDS011;4788;52.438;9.846;2022-08-11T06:54:50;0.30;;;0.30;;
9500;SDS011;4788;52.438;9.846;2022-08-11T06:57:31;0.20;;;0.20;;
9500;SDS011;4788;52.438;9.846;2022-08-11T07:00:17;0.30;;;0.30;;
9500;SDS011;4788;52.438;9.846;2022-08-11T07:03:04;0.30;;;0.30;;
9500;SDS011;4788;52.438;9.846;2022-08-11T07:05:46;0.20;;;0.20;;
9500;SDS011;4788;52.438;9.846;2022-08-11T07:14:22;0.30;;;0.30;;
9500;SDS011;4788;52.438;9.846;2022-08-11T07:17:10;0.20;;;0.20;;
9500;SDS011;4788;52.438;9.846;2022-08-11T07:19:37;0.20;;;0.20;;
9500;SDS011;4788;52.438;9.846;2022-08-11T07:22:24;0.20;;;0.20;;
9500;SDS011;4788;52.438;9.846;2022-08-11T07:25:12;0.10;;;0.10;;
9500;SDS011;4788;52.438;9.846;2022-08-11T07:28:01;0.20;;;0.20;;
9500;SDS011;4788;52.438;9.846;2022-08-11T07:30:47;0.20;;;0.20;;
9500;SDS011;4788;52.438;9.846;2022-08-11T07:33:17;0.10;;;0.10;;
9500;SDS011;4788;52.438;9.846;2022-08-11T07:35:44;0.10;;;0.10;;
9500;SDS011;4788;52.438;9.846;2022-08-11T07:38:15;0.10;;;0.10;;
9500;SDS011;4788;52.438;9.846;2022-08-11T07:40:42;0.20;;;0.20;;
9500;SDS011;4788;52.438;9.846;2022-08-11T07:43:10;0.10;;;0.10;;
9500;SDS011;4788;52.438;9.846;2022-08-11T07:45:41;0.10;;;0.10;;
9500;SDS011;4788;52.438;9.846;2022-08-11T07:48:26;0.10;;;0.10;;
9500;SDS011;4788;52.438;9.846;2022-08-11T07:51:11;0.10;;;0.10;;
9500;SDS011;4788;52.438;9.846;2022-08-11T07:53:57;0.10;;;0.10;;
9500;SDS011;4788;52.438;9.846;2022-08-11T07:56:23;0.10;;;0.10;;
9500;SDS011;4788;52.438;9.846;2022-08-11T07:58:49;0.10;;;0.10;;
9500;SDS011;4788;52.438;9.846;2022-08-11T08:01:34;0.00;;;0.00;;
9500;SDS011;4788;52.438;9.846;2022-08-11T08:04:19;0.10;;;0.10;;
9500;SDS011;4788;52.438;9.846;2022-08-11T08:07:03;0.10;;;0.10;;
9500;SDS011;4788;52.438;9.846;2022-08-11T08:09:49;0.10;;;0.10;;
9500;SDS011;4788;52.438;9.846;2022-08-11T08:12:34;0.00;;;0.00;;
9500;SDS011;4788;52.438;9.846;2022-08-11T08:15:19;0.10;;;0.10;;
9500;SDS011;4788;52.438;9.846;2022-08-11T08:18:05;0.10;;;0.10;;
9500;SDS011;4788;52.438;9.846;2022-08-11T08:20:36;0.10;;;0.10;;
9500;SDS011;4788;52.438;9.846;2022-08-11T08:23:03;0.00;;;0.00;;
9500;SDS011;4788;52.438;9.846;2022-08-11T08:25:30;0.00;;;0.00;;
9500;SDS011;4788;52.438;9.846;2022-08-11T08:27:57;0.10;;;0.10;;
9500;SDS011;4788;52.438;9.846;2022-08-11T08:30:23;0.10;;;0.10;;
9500;SDS011;4788;52.438;9.846;2022-08-11T08:35:40;0.00;;;0.00;;
9500;SDS011;4788;52.438;9.846;2022-08-11T08:38:08;0.00;;;0.00;;
9500;SDS011;4788;52.438;9.846;2022-08-11T08:40:34;0.03;;;0.03;;
9500;SDS011;4788;52.438;9.846;2022-08-11T08:43:10;0.00;;;0.00;;
9500;SDS011;4788;52.438;9.846;2022-08-11T08:45:36;0.00;;;0.00;;
9500;SDS011;4788;52.438;9.846;2022-08-11T08:48:05;0.00;;;0.00;;
9500;SDS011;4788;52.438;9.846;2022-08-11T08:50:34;0.00;;;0.00;;
9500;SDS011;4788;52.438;9.846;2022-08-11T08:53:20;0.00;;;0.00;;
9500;SDS011;4788;52.438;9.846;2022-08-11T08:55:47;0.00;;;0.00;;
9500;SDS011;4788;52.438;9.846;2022-08-11T08:58:15;0.00;;;0.00;;
9500;SDS011;4788;52.438;9.846;2022-08-11T09:00:44;0.00;;;0.00;;
9500;SDS011;4788;52.438;9.846;2022-08-11T09:03:10;0.00;;;0.00;;
9500;SDS011;4788;52.438;9.846;2022-08-11T09:05:37;0.00;;;0.00;;
9500;SDS011;4788;52.438;9.846;2022-08-11T09:08:03;0.00;;;0.00;;
9500;SDS011;4788;52.438;9.846;2022-08-11T09:10:30;0.00;;;0.00;;
9500;SDS011;4788;52.438;9.846;2022-08-11T09:12:57;0.00;;;0.00;;
9500;SDS011;4788;52.438;9.846;2022-08-11T09:15:23;0.00;;;0.00;;
9500;SDS011;4788;52.438;9.846;2022-08-11T09:17:54;0.00;;;0.00;;
9500;SDS011;4788;52.438;9.846;2022-08-11T09:20:25;0.00;;;0.00;;
9500;SDS011;4788;52.438;9.846;2022-08-11T09:22:56;0.00;;;0.00;;
9500;SDS011;4788;52.438;9.846;2022-08-11T09:25:41;0.00;;;0.00;;
9500;SDS011;4788;52.438;9.846;2022-08-11T09:28:27;0.00;;;0.00;;
9500;SDS011;4788;52.438;9.846;2022-08-11T09:30:54;0.00;;;0.00;;
9500;SDS011;4788;52.438;9.846;2022-08-11T09:33:21;0.00;;;0.00;;
9500;SDS011;4788;52.438;9.846;2022-08-11T09:35:48;0.00;;;0.00;;
9500;SDS011;4788;52.438;9.846;2022-08-11T09:38:15;0.00;;;0.00;;
9500;SDS011;4788;52.438;9.846;2022-08-11T09:41:02;0.00;;;0.00;;
9500;SDS011;4788;52.438;9.846;2022-08-11T09:43:29;0.00;;;0.00;;
9500;SDS011;4788;52.438;9.846;2022-08-11T09:46:14;0.00;;;0.00;;
9500;SDS011;4788;52.438;9.846;2022-08-11T09:48:42;0.00;;;0.00;;
9500;SDS011;4788;52.438;9.846;2022-08-11T09:51:09;0.00;;;0.00;;
9500;SDS011;4788;52.438;9.846;2022-08-11T09:53:36;0.00;;;0.00;;
9500;SDS011;4788;52.438;9.846;2022-08-11T09:56:03;0.00;;;0.00;;
9500;SDS011;4788;52.438;9.846;2022-08-11T09:58:49;0.00;;;0.00;;
9500;SDS011;4788;52.438;9.846;2022-08-11T10:01:16;0.00;;;0.00;;
9500;SDS011;4788;52.438;9.846;2022-08-11T10:03:51;0.00;;;0.00;;
9500;SDS011;4788;52.438;9.846;2022-08-11T10:06:17;0.00;;;0.00;;
9500;SDS011;4788;52.438;9.846;2022-08-11T10:09:02;0.00;;;0.00;;
9500;SDS011;4788;52.438;9.846;2022-08-11T10:11:30;0.00;;;0.00;;
9500;SDS011;4788;52.438;9.846;2022-08-11T10:13:58;0.00;;;0.00;;
9500;SDS011;4788;52.438;9.846;2022-08-11T10:16:43;0.00;;;0.00;;
9500;SDS011;4788;52.438;9.846;2022-08-11T10:19:10;0.00;;;0.00;;
9500;SDS011;4788;52.438;9.846;2022-08-11T10:21:43;0.00;;;0.00;;
9500;SDS011;4788;52.438;9.846;2022-08-11T10:24:30;0.00;;;0.00;;
9500;SDS011;4788;52.438;9.846;2022-08-11T10:27:14;0.00;;;0.00;;
9500;SDS011;4788;52.438;9.846;2022-08-11T10:29:41;0.00;;;0.00;;
9500;SDS011;4788;52.438;9.846;2022-08-11T10:32:29;0.00;;;0.00;;
9500;SDS011;4788;52.438;9.846;2022-08-11T10:35:15;0.00;;;0.00;;
9500;SDS011;4788;52.438;9.846;2022-08-11T10:37:41;0.00;;;0.00;;
9500;SDS011;4788;52.438;9.846;2022-08-11T10:40:09;0.00;;;0.00;;
9500;SDS011;4788;52.438;9.846;2022-08-11T10:42:36;0.00;;;0.00;;
9500;SDS011;4788;52.438;9.846;2022-08-11T10:45:21;0.00;;;0.00;;
9500;SDS011;4788;52.438;9.846;2022-08-11T10:48:07;0.00;;;0.00;;
9500;SDS011;4788;52.438;9.846;2022-08-11T10:50:34;0.00;;;0.00;;
9500;SDS011;4788;52.438;9.846;2022-08-11T10:53:19;0.00;;;0.00;;
9500;SDS011;4788;52.438;9.846;2022-08-11T10:56:05;0.00;;;0.00;;
9500;SDS011;4788;52.438;9.846;2022-08-11T10:58:50;0.00;;;0.00;;
9500;SDS011;4788;52.438;9.846;2022-08-11T11:03:52;0.00;;;0.00;;
9500;SDS011;4788;52.438;9.846;2022-08-11T11:08:50;0.00;;;0.00;;
9500;SDS011;4788;52.438;9.846;2022-08-11T11:11:16;0.00;;;0.00;;
9500;SDS011;4788;52.438;9.846;2022-08-11T11:13:44;0.00;;;0.00;;
9500;SDS011;4788;52.438;9.846;2022-08-11T11:16:30;0.00;;;0.00;;
9500;SDS011;4788;52.438;9.846;2022-08-11T11:19:17;0.00;;;0.00;;
9500;SDS011;4788;52.438;9.846;2022-08-11T11:21:44;0.00;;;0.00;;
9500;SDS011;4788;52.438;9.846;2022-08-11T11:24:15;0.00;;;0.00;;
9500;SDS011;4788;52.438;9.846;2022-08-11T11:26:54;0.00;;;0.00;;
9500;SDS011;4788;52.438;9.846;2022-08-11T11:37:28;0.00;;;0.00;;
9500;SDS011;4788;52.438;9.846;2022-08-11T11:39:54;0.00;;;0.00;;
9500;SDS011;4788;52.438;9.846;2022-08-11T11:42:21;0.00;;;0.00;;
9500;SDS011;4788;52.438;9.846;2022-08-11T11:44:48;0.00;;;0.00;;
9500;SDS011;4788;52.438;9.846;2022-08-11T11:47:14;0.00;;;0.00;;
9500;SDS011;4788;52.438;9.846;2022-08-11T11:49:44;0.00;;;0.00;;
9500;SDS011;4788;52.438;9.846;2022-08-11T11:52:18;0.00;;;0.00;;
9500;SDS011;4788;52.438;9.846;2022-08-11T11:54:45;0.00;;;0.00;;
9500;SDS011;4788;52.438;9.846;2022-08-11T11:57:15;0.00;;;0.00;;
9500;SDS011;4788;52.438;9.846;2022-08-11T12:00:02;0.00;;;0.00;;
9500;SDS011;4788;52.438;9.846;2022-08-11T12:02:47;0.00;;;0.00;;
9500;SDS011;4788;52.438;9.846;2022-08-11T12:05:14;0.00;;;0.00;;
9500;SDS011;4788;52.438;9.846;2022-08-11T12:07:40;0.00;;;0.00;;
9500;SDS011;4788;52.438;9.846;2022-08-11T12:10:25;0.00;;;0.00;;
9500;SDS011;4788;52.438;9.846;2022-08-11T12:12:51;0.00;;;0.00;;
9500;SDS011;4788;52.438;9.846;2022-08-11T12:15:36;0.00;;;0.00;;
9500;SDS011;4788;52.438;9.846;2022-08-11T12:18:02;0.00;;;0.00;;
9500;SDS011;4788;52.438;9.846;2022-08-11T12:20:29;0.00;;;0.00;;
9500;SDS011;4788;52.438;9.846;2022-08-11T12:22:55;0.00;;;0.00;;
9500;SDS011;4788;52.438;9.846;2022-08-11T12:25:41;0.00;;;0.00;;
9500;SDS011;4788;52.438;9.846;2022-08-11T12:28:26;0.00;;;0.00;;
9500;SDS011;4788;52.438;9.846;2022-08-11T12:30:52;0.00;;;0.00;;
9500;SDS011;4788;52.438;9.846;2022-08-11T12:33:19;0.00;;;0.00;;
9500;SDS011;4788;52.438;9.846;2022-08-11T12:35:45;0.00;;;0.00;;
9500;SDS011;4788;52.438;9.846;2022-08-11T12:38:12;0.00;;;0.00;;
9500;SDS011;4788;52.438;9.846;2022-08-11T12:40:39;0.00;;;0.00;;
9500;SDS011;4788;52.438;9.846;2022-08-11T12:43:26;0.00;;;0.00;;
9500;SDS011;4788;52.438;9.846;2022-08-11T12:46:13;0.00;;;0.00;;
9500;SDS011;4788;52.438;9.846;2022-08-11T12:48:43;0.00;;;0.00;;
9500;SDS011;4788;52.438;9.846;2022-08-11T12:51:33;0.00;;;0.00;;
9500;SDS011;4788;52.438;9.846;2022-08-11T12:54:22;0.00;;;0.00;;
9500;SDS011;4788;52.438;9.846;2022-08-11T12:56:53;0.00;;;0.00;;
9500;SDS011;4788;52.438;9.846;2022-08-11T12:59:56;0.00;;;0.00;;
9500;SDS011;4788;52.438;9.846;2022-08-11T13:02:45;0.00;;;0.00;;
9500;SDS011;4788;52.438;9.846;2022-08-11T13:05:30;0.00;;;0.00;;
9500;SDS011;4788;52.438;9.846;2022-08-11T13:07:57;0.00;;;0.00;;
9500;SDS011;4788;52.438;9.846;2022-08-11T13:10:25;0.00;;;0.00;;
9500;SDS011;4788;52.438;9.846;2022-08-11T13:13:10;0.00;;;0.00;;
9500;SDS011;4788;52.438;9.846;2022-08-11T13:15:36;0.00;;;0.00;;
9500;SDS011;4788;52.438;9.846;2022-08-11T13:18:03;0.00;;;0.00;;
9500;SDS011;4788;52.438;9.846;2022-08-11T13:20:32;0.00;;;0.00;;
9500;SDS011;4788;52.438;9.846;2022-08-11T13:22:58;0.00;;;0.00;;
9500;SDS011;4788;52.438;9.846;2022-08-11T13:25:26;0.00;;;0.00;;
9500;SDS011;4788;52.438;9.846;2022-08-11T13:27:54;0.00;;;0.00;;
9500;SDS011;4788;52.438;9.846;2022-08-11T13:30:22;0.00;;;0.00;;
9500;SDS011;4788;52.438;9.846;2022-08-11T13:33:07;0.00;;;0.00;;
9500;SDS011;4788;52.438;9.846;2022-08-11T13:35:34;0.00;;;0.00;;
9500;SDS011;4788;52.438;9.846;2022-08-11T13:38:00;0.00;;;0.00;;
9500;SDS011;4788;52.438;9.846;2022-08-11T13:40:27;0.00;;;0.00;;
9500;SDS011;4788;52.438;9.846;2022-08-11T13:42:53;0.00;;;0.00;;
9500;SDS011;4788;52.438;9.846;2022-08-11T13:45:22;0.00;;;0.00;;
9500;SDS011;4788;52.438;9.846;2022-08-11T13:47:49;0.05;;;0.05;;
9500;SDS011;4788;52.438;9.846;2022-08-11T13:50:16;0.00;;;0.00;;
9500;SDS011;4788;52.438;9.846;2022-08-11T13:52:43;0.00;;;0.00;;
9500;SDS011;4788;52.438;9.846;2022-08-11T13:55:12;0.00;;;0.00;;
9500;SDS011;4788;52.438;9.846;2022-08-11T13:57:50;0.00;;;0.00;;
9500;SDS011;4788;52.438;9.846;2022-08-11T14:00:17;0.00;;;0.00;;
9500;SDS011;4788;52.438;9.846;2022-08-11T14:02:43;0.00;;;0.00;;
9500;SDS011;4788;52.438;9.846;2022-08-11T14:05:14;0.05;;;0.05;;
9500;SDS011;4788;52.438;9.846;2022-08-11T14:07:45;0.00;;;0.00;;
9500;SDS011;4788;52.438;9.846;2022-08-11T14:10:12;0.00;;;0.00;;
9500;SDS011;4788;52.438;9.846;2022-08-11T14:12:41;0.00;;;0.00;;
9500;SDS011;4788;52.438;9.846;2022-08-11T14:15:28;0.00;;;0.00;;
9500;SDS011;4788;52.438;9.846;2022-08-11T14:17:56;0.00;;;0.00;;
9500;SDS011;4788;52.438;9.846;2022-08-11T14:20:27;0.10;;;0.10;;
9500;SDS011;4788;52.438;9.846;2022-08-11T14:23:14;0.00;;;0.00;;
9500;SDS011;4788;52.438;9.846;2022-08-11T14:25:40;0.10;;;0.10;;
9500;SDS011;4788;52.438;9.846;2022-08-11T14:28:27;0.00;;;0.00;;
9500;SDS011;4788;52.438;9.846;2022-08-11T14:30:53;0.00;;;0.00;;
9500;SDS011;4788;52.438;9.846;2022-08-11T14:33:19;0.00;;;0.00;;
9500;SDS011;4788;52.438;9.846;2022-08-11T14:35:45;0.00;;;0.00;;
9500;SDS011;4788;52.438;9.846;2022-08-11T14:38:11;0.10;;;0.10;;
9500;SDS011;4788;52.438;9.846;2022-08-11T14:40:37;0.00;;;0.00;;
9500;SDS011;4788;52.438;9.846;2022-08-11T14:43:22;0.00;;;0.00;;
9500;SDS011;4788;52.438;9.846;2022-08-11T14:46:08;0.03;;;0.03;;
9500;SDS011;4788;52.438;9.846;2022-08-11T14:48:53;0.10;;;0.10;;
9500;SDS011;4788;52.438;9.846;2022-08-11T14:51:20;0.10;;;0.10;;
9500;SDS011;4788;52.438;9.846;2022-08-11T14:53:46;0.00;;;0.00;;
9500;SDS011;4788;52.438;9.846;2022-08-11T14:56:13;0.00;;;0.00;;
9500;SDS011;4788;52.438;9.846;2022-08-11T14:58:58;0.08;;;0.08;;
9500;SDS011;4788;52.438;9.846;2022-08-11T15:01:25;0.00;;;0.00;;
9500;SDS011;4788;52.438;9.846;2022-08-11T15:04:09;0.00;;;0.00;;
9500;SDS011;4788;52.438;9.846;2022-08-11T15:06:35;0.00;;;0.00;;
9500;SDS011;4788;52.438;9.846;2022-08-11T15:09:02;0.00;;;0.00;;
9500;SDS011;4788;52.438;9.846;2022-08-11T15:11:29;0.00;;;0.00;;
9500;SDS011;4788;52.438;9.846;2022-08-11T15:14:14;0.00;;;0.00;;
9500;SDS011;4788;52.438;9.846;2022-08-11T15:17:01;0.10;;;0.10;;
9500;SDS011;4788;52.438;9.846;2022-08-11T15:19:33;0.10;;;0.10;;
9500;SDS011;4788;52.438;9.846;2022-08-11T15:21:59;0.00;;;0.00;;
9500;SDS011;4788;52.438;9.846;2022-08-11T15:24:44;0.10;;;0.10;;
9500;SDS011;4788;52.438;9.846;2022-08-11T15:27:11;0.10;;;0.10;;
9500;SDS011;4788;52.438;9.846;2022-08-11T15:29:57;0.10;;;0.10;;
9500;SDS011;4788;52.438;9.846;2022-08-11T15:32:42;0.00;;;0.00;;
9500;SDS011;4788;52.438;9.846;2022-08-11T15:35:28;0.10;;;0.10;;
9500;SDS011;4788;52.438;9.846;2022-08-11T15:38:13;0.10;;;0.10;;
9500;SDS011;4788;52.438;9.846;2022-08-11T15:40:40;0.10;;;0.10;;
9500;SDS011;4788;52.438;9.846;2022-08-11T15:43:39;0.00;;;0.00;;
9500;SDS011;4788;52.438;9.846;2022-08-11T15:46:29;0.00;;;0.00;;
9500;SDS011;4788;52.438;9.846;2022-08-11T15:49:04;0.00;;;0.00;;
9500;SDS011;4788;52.438;9.846;2022-08-11T15:51:36;0.00;;;0.00;;
9500;SDS011;4788;52.438;9.846;2022-08-11T15:54:07;0.10;;;0.10;;
9500;SDS011;4788;52.438;9.846;2022-08-11T15:56:34;0.10;;;0.10;;
9500;SDS011;4788;52.438;9.846;2022-08-11T15:59:02;0.10;;;0.10;;
9500;SDS011;4788;52.438;9.846;2022-08-11T16:01:48;0.10;;;0.10;;
9500;SDS011;4788;52.438;9.846;2022-08-11T16:04:35;0.00;;;0.00;;
9500;SDS011;4788;52.438;9.846;2022-08-11T16:07:20;0.10;;;0.10;;
9500;SDS011;4788;52.438;9.846;2022-08-11T16:09:52;0.05;;;0.05;;
9500;SDS011;4788;52.438;9.846;2022-08-11T16:15:03;0.03;;;0.03;;
9500;SDS011;4788;52.438;9.846;2022-08-11T16:17:53;0.10;;;0.10;;
9500;SDS011;4788;52.438;9.846;2022-08-11T16:20:21;0.10;;;0.10;;
9500;SDS011;4788;52.438;9.846;2022-08-11T16:22:48;0.10;;;0.10;;
9500;SDS011;4788;52.438;9.846;2022-08-11T16:25:19;0.10;;;0.10;;
9500;SDS011;4788;52.438;9.846;2022-08-11T16:27:48;0.00;;;0.00;;
9500;SDS011;4788;52.438;9.846;2022-08-11T16:30:15;0.10;;;0.10;;
9500;SDS011;4788;52.438;9.846;2022-08-11T16:32:45;0.10;;;0.10;;
9500;SDS011;4788;52.438;9.846;2022-08-11T16:35:15;0.10;;;0.10;;
9500;SDS011;4788;52.438;9.846;2022-08-11T16:38:03;0.10;;;0.10;;
9500;SDS011;4788;52.438;9.846;2022-08-11T16:40:50;0.10;;;0.10;;
9500;SDS011;4788;52.438;9.846;2022-08-11T16:43:17;0.10;;;0.10;;
9500;SDS011;4788;52.438;9.846;2022-08-11T16:46:02;0.00;;;0.00;;
9500;SDS011;4788;52.438;9.846;2022-08-11T16:49:03;0.10;;;0.10;;
9500;SDS011;4788;52.438;9.846;2022-08-11T16:51:29;0.10;;;0.10;;
9500;SDS011;4788;52.438;9.846;2022-08-11T16:53:56;0.10;;;0.10;;
9500;SDS011;4788;52.438;9.846;2022-08-11T16:56:24;0.10;;;0.10;;
9500;SDS011;4788;52.438;9.846;2022-08-11T16:58:55;0.10;;;0.10;;
9500;SDS011;4788;52.438;9.846;2022-08-11T17:01:38;0.10;;;0.10;;
9500;SDS011;4788;52.438;9.846;2022-08-11T17:04:10;0.10;;;0.10;;
9500;SDS011;4788;52.438;9.846;2022-08-11T17:06:57;0.10;;;0.10;;
9500;SDS011;4788;52.438;9.846;2022-08-11T17:09:41;0.10;;;0.10;;
9500;SDS011;4788;52.438;9.846;2022-08-11T17:12:29;0.10;;;0.10;;
9500;SDS011;4788;52.438;9.846;2022-08-11T17:15:16;0.10;;;0.10;;
9500;SDS011;4788;52.438;9.846;2022-08-11T17:18:01;0.10;;;0.10;;
9500;SDS011;4788;52.438;9.846;2022-08-11T17:20:28;0.10;;;0.10;;
9500;SDS011;4788;52.438;9.846;2022-08-11T17:22:55;0.10;;;0.10;;
9500;SDS011;4788;52.438;9.846;2022-08-11T17:25:40;0.10;;;0.10;;
9500;SDS011;4788;52.438;9.846;2022-08-11T17:28:06;0.10;;;0.10;;
9500;SDS011;4788;52.438;9.846;2022-08-11T17:30:32;0.10;;;0.10;;
9500;SDS011;4788;52.438;9.846;2022-08-11T17:33:18;0.10;;;0.10;;
9500;SDS011;4788;52.438;9.846;2022-08-11T17:36:03;0.10;;;0.10;;
9500;SDS011;4788;52.438;9.846;2022-08-11T17:38:29;0.10;;;0.10;;
9500;SDS011;4788;52.438;9.846;2022-08-11T17:40:58;0.10;;;0.10;;
9500;SDS011;4788;52.438;9.846;2022-08-11T17:43:43;0.10;;;0.10;;
9500;SDS011;4788;52.438;9.846;2022-08-11T17:46:29;0.10;;;0.10;;
9500;SDS011;4788;52.438;9.846;2022-08-11T17:49:14;0.10;;;0.10;;
9500;SDS011;4788;52.438;9.846;2022-08-11T17:51:41;0.13;;;0.13;;
9500;SDS011;4788;52.438;9.846;2022-08-11T17:54:27;0.10;;;0.10;;
9500;SDS011;4788;52.438;9.846;2022-08-11T17:57:14;0.10;;;0.10;;
9500;SDS011;4788;52.438;9.846;2022-08-11T18:00:00;0.10;;;0.10;;
9500;SDS011;4788;52.438;9.846;2022-08-11T18:02:34;0.10;;;0.10;;
9500;SDS011;4788;52.438;9.846;2022-08-11T18:05:19;0.10;;;0.10;;
9500;SDS011;4788;52.438;9.846;2022-08-11T18:07:47;0.10;;;0.10;;
9500;SDS011;4788;52.438;9.846;2022-08-11T18:10:34;0.10;;;0.10;;
9500;SDS011;4788;52.438;9.846;2022-08-11T18:13:20;0.10;;;0.10;;
9500;SDS011;4788;52.438;9.846;2022-08-11T18:16:06;0.10;;;0.10;;
9500;SDS011;4788;52.438;9.846;2022-08-11T18:18:51;0.10;;;0.10;;
9500;SDS011;4788;52.438;9.846;2022-08-11T18:21:36;0.13;;;0.13;;
9500;SDS011;4788;52.438;9.846;2022-08-11T18:24:22;0.10;;;0.10;;
9500;SDS011;4788;52.438;9.846;2022-08-11T18:27:09;0.10;;;0.10;;
9500;SDS011;4788;52.438;9.846;2022-08-11T18:29:57;0.10;;;0.10;;
9500;SDS011;4788;52.438;9.846;2022-08-11T18:32:46;0.10;;;0.10;;
9500;SDS011;4788;52.438;9.846;2022-08-11T18:35:32;0.10;;;0.10;;
9500;SDS011;4788;52.438;9.846;2022-08-11T18:38:18;0.17;;;0.17;;
9500;SDS011;4788;52.438;9.846;2022-08-11T18:41:07;0.15;;;0.15;;
9500;SDS011;4788;52.438;9.846;2022-08-11T18:43:56;0.10;;;0.10;;
9500;SDS011;4788;52.438;9.846;2022-08-11T18:46:45;0.10;;;0.10;;
9500;SDS011;4788;52.438;9.846;2022-08-11T18:49:34;0.10;;;0.10;;
9500;SDS011;4788;52.438;9.846;2022-08-11T18:52:19;0.10;;;0.10;;
9500;SDS011;4788;52.438;9.846;2022-08-11T18:55:07;0.10;;;0.10;;
9500;SDS011;4788;52.438;9.846;2022-08-11T18:57:52;0.10;;;0.10;;
9500;SDS011;4788;52.438;9.846;2022-08-11T19:00:37;0.10;;;0.10;;
9500;SDS011;4788;52.438;9.846;2022-08-11T19:03:22;0.10;;;0.10;;
9500;SDS011;4788;52.438;9.846;2022-08-11T19:06:10;0.10;;;0.10;;
9500;SDS011;4788;52.438;9.846;2022-08-11T19:08:59;0.20;;;0.20;;